Time;durP1;ratioP1;P1;durP2;ratioP2;P2;SDS_P1;SDS_P2;PMS_P1;PMS_P2;Temp;Humidity;BMP_temperature;BMP_pressure;BME280_temperature;BME280_humidity;BME280_pressure;Samples;Min_cycle;Max_cycle;Signal;HPM_P1;HPM_P2
2021/08/05 00:00:04;;;;;;;8.10;7.22;;;;;;;;;;5016836;28;20403;-79
2021/08/05 00:02:30;;;;;;;8.85;7.97;;;;;;;;;;5016286;28;20037;-79
2021/08/05 00:04:56;;;;;;;7.28;6.55;;;;;;;;;;5016285;28;20044;-79
2021/08/05 00:07:21;;;;;;;8.10;7.30;;;;;;;;;;5000325;28;20072;-79
2021/08/05 00:09:46;;;;;;;7.78;7.05;;;;;;;;;;5001845;28;20029;-81
2021/08/05 00:12:12;;;;;;;8.82;7.13;;;;;;;;;;4996926;28;20083;-79
2021/08/05 00:14:38;;;;;;;8.05;7.00;;;;;;;;;;5027146;28;20055;-79
2021/08/05 00:17:04;;;;;;;7.90;7.10;;;;;;;;;;5017586;28;20475;-79
2021/08/05 00:19:29;;;;;;;7.75;6.97;;;;;;;;;;5012484;28;20029;-79
2021/08/05 00:21:55;;;;;;;7.78;6.93;;;;;;;;;;4995596;28;20112;-79
2021/08/05 00:24:20;;;;;;;8.07;6.43;;;;;;;;;;5009077;28;20060;-79
2021/08/05 00:26:46;;;;;;;8.25;7.35;;;;;;;;;;5013476;28;20404;-79
2021/08/05 00:29:11;;;;;;;7.50;6.78;;;;;;;;;;4997087;28;20025;-79
2021/08/05 00:31:37;;;;;;;7.95;7.15;;;;;;;;;;4996750;28;20041;-79
2021/08/05 00:34:02;;;;;;;8.55;6.88;;;;;;;;;;5005198;28;20037;-78
2021/08/05 00:36:28;;;;;;;7.63;6.82;;;;;;;;;;5016135;28;20537;-79
2021/08/05 00:38:53;;;;;;;6.38;5.78;;;;;;;;;;5001554;28;20037;-79
2021/08/05 00:41:19;;;;;;;7.03;6.32;;;;;;;;;;5016605;28;20033;-79
2021/08/05 00:43:44;;;;;;;7.50;6.78;;;;;;;;;;5016727;28;20037;-79
2021/08/05 00:46:10;;;;;;;7.03;6.32;;;;;;;;;;4998905;28;20037;-79
2021/08/05 00:48:39;;;;;;;7.35;6.65;;;;;;;;;;4999668;28;20033;-82
2021/08/05 00:51:08;;;;;;;6.97;6.25;;;;;;;;;;5000881;28;20051;-80
2021/08/05 00:53:43;;;;;;;8.77;7.18;;;;;;;;;;4998440;28;20512;-80
2021/08/05 00:56:13;;;;;;;7.80;7.00;;;;;;;;;;5012621;28;20037;-81
2021/08/05 00:58:40;;;;;;;7.50;6.72;;;;;;;;;;5013458;28;20139;-80
2021/08/05 01:01:23;;;;;;;8.55;7.13;;;;;;;;;;4996979;28;20408;-81
2021/08/05 01:03:58;;;;;;;8.18;7.07;;;;;;;;;;4997480;28;20100;-80
2021/08/05 01:06:25;;;;;;;8.07;6.35;;;;;;;;;;5017210;28;20170;-80
2021/08/05 01:08:59;;;;;;;6.60;5.95;;;;;;;;;;5033791;28;20499;-80
2021/08/05 01:11:31;;;;;;;9.63;6.50;;;;;;;;;;5017011;28;20523;-80
2021/08/05 01:14:07;;;;;;;7.88;6.43;;;;;;;;;;5032822;28;20104;-81
2021/08/05 01:17:10;;;;;;;6.80;6.10;;;;;;;;;;5016787;28;20037;-80
2021/08/05 01:19:56;;;;;;;7.45;6.75;;;;;;;;;;5018530;28;20046;-80
2021/08/05 01:23:00;;;;;;;7.00;6.25;;;;;;;;;;5016236;28;20033;-81
2021/08/05 01:25:40;;;;;;;7.38;6.68;;;;;;;;;;5032172;28;20029;-81
2021/08/05 01:28:15;;;;;;;7.32;6.47;;;;;;;;;;5017375;28;20040;-81
2021/08/05 01:30:42;;;;;;;6.93;6.32;;;;;;;;;;5015606;28;20030;-81
2021/08/05 01:33:07;;;;;;;6.90;6.20;;;;;;;;;;5012206;28;20048;-81
2021/08/05 01:35:33;;;;;;;7.07;6.38;;;;;;;;;;4996020;28;20412;-81
2021/08/05 01:37:58;;;;;;;7.18;6.28;;;;;;;;;;4980174;28;20038;-81
2021/08/05 01:40:24;;;;;;;7.70;6.32;;;;;;;;;;4980154;28;20030;-81
2021/08/05 01:42:49;;;;;;;6.85;6.20;;;;;;;;;;4979879;28;20037;-81
2021/08/05 01:45:15;;;;;;;7.57;6.75;;;;;;;;;;4979318;28;20049;-81
2021/08/05 01:47:41;;;;;;;7.50;6.70;;;;;;;;;;5015481;28;20048;-80
2021/08/05 01:50:08;;;;;;;8.13;6.30;;;;;;;;;;5014697;28;20156;-81
2021/08/05 01:52:36;;;;;;;6.72;6.13;;;;;;;;;;5032195;28;20037;-81
2021/08/05 01:55:04;;;;;;;7.18;6.47;;;;;;;;;;4996720;28;20038;-81
2021/08/05 01:57:31;;;;;;;6.55;5.85;;;;;;;;;;4995479;28;20042;-81
2021/08/05 01:59:56;;;;;;;6.97;6.28;;;;;;;;;;5011840;28;20026;-81
2021/08/05 02:02:22;;;;;;;6.63;5.45;;;;;;;;;;4995632;28;20038;-81
2021/08/05 02:05:14;;;;;;;6.55;5.82;;;;;;;;;;5012026;28;20121;-81
2021/08/05 02:07:51;;;;;;;6.53;5.93;;;;;;;;;;5024851;28;20040;-81
2021/08/05 02:10:31;;;;;;;6.93;6.15;;;;;;;;;;5035586;28;20039;-81
2021/08/05 02:13:20;;;;;;;7.10;6.38;;;;;;;;;;5049059;28;20068;-81
2021/08/05 02:15:48;;;;;;;5.85;5.30;;;;;;;;;;4990318;28;20034;-81
2021/08/05 02:18:14;;;;;;;6.82;6.13;;;;;;;;;;5014789;28;20037;-81
2021/08/05 02:20:44;;;;;;;6.22;5.60;;;;;;;;;;5015255;28;20025;-81
2021/08/05 02:23:10;;;;;;;6.90;5.82;;;;;;;;;;5014739;28;20049;-81
2021/08/05 02:25:38;;;;;;;6.93;5.78;;;;;;;;;;5017515;28;20120;-81
2021/08/05 02:28:04;;;;;;;6.25;5.65;;;;;;;;;;5018222;28;20120;-81
2021/08/05 02:30:29;;;;;;;6.13;5.53;;;;;;;;;;5018180;28;20526;-81
2021/08/05 02:32:55;;;;;;;6.88;6.25;;;;;;;;;;4988656;28;20038;-81
2021/08/05 02:35:22;;;;;;;6.47;5.75;;;;;;;;;;4995350;28;20057;-81
2021/08/05 02:37:48;;;;;;;6.05;5.47;;;;;;;;;;4978752;28;20041;-81
2021/08/05 02:40:13;;;;;;;5.72;5.22;;;;;;;;;;4995062;28;20034;-81
2021/08/05 02:42:39;;;;;;;6.70;5.32;;;;;;;;;;4994541;28;20041;-81
2021/08/05 02:45:06;;;;;;;7.57;5.53;;;;;;;;;;4996971;28;20041;-81
2021/08/05 02:47:32;;;;;;;5.85;5.35;;;;;;;;;;4999999;28;20079;-81
2021/08/05 02:49:57;;;;;;;6.53;5.93;;;;;;;;;;5011151;28;20030;-81
2021/08/05 02:52:23;;;;;;;5.90;5.30;;;;;;;;;;4997954;28;20416;-81
2021/08/05 02:54:48;;;;;;;6.35;5.43;;;;;;;;;;5030730;28;20037;-81
2021/08/05 02:57:14;;;;;;;9.00;5.72;;;;;;;;;;5030396;28;20044;-81
2021/08/05 02:59:39;;;;;;;5.70;5.13;;;;;;;;;;5030906;28;20061;-81
2021/08/05 03:02:05;;;;;;;5.63;5.13;;;;;;;;;;5013905;28;20462;-81
2021/08/05 03:04:32;;;;;;;6.32;5.65;;;;;;;;;;5030608;28;20442;-81
2021/08/05 03:06:58;;;;;;;5.57;5.03;;;;;;;;;;5047417;28;20040;-81
2021/08/05 03:09:23;;;;;;;6.47;5.70;;;;;;;;;;5033715;28;20141;-81
2021/08/05 03:11:49;;;;;;;7.18;6.13;;;;;;;;;;5017219;28;20510;-81
2021/08/05 03:14:15;;;;;;;6.45;5.13;;;;;;;;;;5017560;28;20037;-81
2021/08/05 03:16:41;;;;;;;7.07;5.53;;;;;;;;;;5022739;28;20045;-81
2021/08/05 03:19:06;;;;;;;5.72;5.22;;;;;;;;;;5013556;28;20056;-81
2021/08/05 03:21:32;;;;;;;5.28;4.72;;;;;;;;;;5013878;28;20094;-81
2021/08/05 03:23:57;;;;;;;6.28;5.30;;;;;;;;;;5014002;28;20079;-81
2021/08/05 03:26:23;;;;;;;5.55;4.93;;;;;;;;;;5029923;28;20045;-81
2021/08/05 03:28:48;;;;;;;5.68;5.18;;;;;;;;;;5014151;28;20045;-81
2021/08/05 03:31:14;;;;;;;6.00;5.13;;;;;;;;;;5024756;28;20110;-81
2021/08/05 03:33:39;;;;;;;5.60;5.10;;;;;;;;;;4997827;28;20069;-81
2021/08/05 03:36:05;;;;;;;5.40;4.90;;;;;;;;;;5018012;28;20044;-81
2021/08/05 03:38:30;;;;;;;5.55;4.88;;;;;;;;;;5010729;28;20084;-81
2021/08/05 03:40:56;;;;;;;7.13;5.13;;;;;;;;;;4993801;28;20040;-81
2021/08/05 03:43:22;;;;;;;6.43;5.00;;;;;;;;;;5010907;28;20038;-80
2021/08/05 03:45:47;;;;;;;5.75;5.03;;;;;;;;;;5015585;28;20068;-81
2021/08/05 03:48:13;;;;;;;5.20;4.70;;;;;;;;;;5013365;28;20121;-81
2021/08/05 03:50:38;;;;;;;5.68;4.97;;;;;;;;;;5020047;28;20098;-81
2021/08/05 03:53:04;;;;;;;5.82;5.32;;;;;;;;;;5016970;28;20037;-81
2021/08/05 03:55:29;;;;;;;6.13;5.25;;;;;;;;;;5014253;28;20041;-81
2021/08/05 03:57:55;;;;;;;5.20;4.70;;;;;;;;;;5017419;28;20041;-81
2021/08/05 04:00:20;;;;;;;5.90;5.10;;;;;;;;;;5016691;28;20033;-80
2021/08/05 04:02:46;;;;;;;5.20;4.70;;;;;;;;;;5016897;28;20491;-81
2021/08/05 04:05:11;;;;;;;5.50;4.53;;;;;;;;;;5016783;28;20033;-81
2021/08/05 04:07:37;;;;;;;4.80;4.40;;;;;;;;;;5000306;28;20079;-80
2021/08/05 04:10:03;;;;;;;5.43;4.93;;;;;;;;;;5015025;28;20124;-81
2021/08/05 04:12:29;;;;;;;4.78;4.30;;;;;;;;;;5017277;28;20509;-81
2021/08/05 04:14:54;;;;;;;4.95;4.45;;;;;;;;;;5020573;28;20041;-81
2021/08/05 04:17:20;;;;;;;5.07;4.53;;;;;;;;;;5020505;28;20055;-81
2021/08/05 04:19:45;;;;;;;5.30;4.50;;;;;;;;;;5020123;28;20032;-81
2021/08/05 04:22:11;;;;;;;5.05;4.45;;;;;;;;;;5020651;28;20116;-81
2021/08/05 04:24:36;;;;;;;5.22;4.72;;;;;;;;;;5020125;28;20033;-81
2021/08/05 04:27:02;;;;;;;4.65;4.10;;;;;;;;;;5037061;28;20094;-81
2021/08/05 04:29:27;;;;;;;5.07;4.57;;;;;;;;;;5011865;28;20707;-81
2021/08/05 04:31:53;;;;;;;4.65;4.05;;;;;;;;;;5016998;28;20059;-81
2021/08/05 04:34:18;;;;;;;5.38;4.70;;;;;;;;;;5016700;28;20052;-81
2021/08/05 04:36:44;;;;;;;4.63;4.03;;;;;;;;;;5000673;28;20072;-81
2021/08/05 04:39:10;;;;;;;4.93;3.80;;;;;;;;;;5020643;28;20487;-81
2021/08/05 04:41:35;;;;;;;4.20;3.75;;;;;;;;;;5036596;28;20082;-81
2021/08/05 04:44:01;;;;;;;4.93;4.13;;;;;;;;;;5020212;28;20403;-81
2021/08/05 04:46:26;;;;;;;4.40;4.00;;;;;;;;;;5015140;28;20029;-81
2021/08/05 04:48:51;;;;;;;4.32;3.63;;;;;;;;;;5016419;28;20117;-81
2021/08/05 04:51:17;;;;;;;4.60;3.97;;;;;;;;;;5016510;28;20033;-81
2021/08/05 04:53:43;;;;;;;4.20;3.78;;;;;;;;;;4999985;28;20348;-81
2021/08/05 04:56:08;;;;;;;4.50;4.10;;;;;;;;;;5016385;28;20049;-81
2021/08/05 04:58:34;;;;;;;5.95;4.13;;;;;;;;;;5016571;28;20045;-81
2021/08/05 05:00:59;;;;;;;5.10;3.80;;;;;;;;;;5016492;28;20127;-81
2021/08/05 05:03:25;;;;;;;4.13;3.17;;;;;;;;;;5016446;28;20044;-81
2021/08/05 05:05:50;;;;;;;4.18;3.63;;;;;;;;;;5016217;28;20510;-81
2021/08/05 05:08:20;;;;;;;4.28;3.88;;;;;;;;;;5016209;28;20125;-81
2021/08/05 05:10:47;;;;;;;4.65;3.92;;;;;;;;;;5019711;28;20025;-81
2021/08/05 05:13:13;;;;;;;3.67;3.15;;;;;;;;;;5019381;28;20029;-82
2021/08/05 05:15:38;;;;;;;3.70;3.40;;;;;;;;;;5019053;28;20415;-81
2021/08/05 05:18:04;;;;;;;3.95;3.15;;;;;;;;;;5018550;28;20131;-81
2021/08/05 05:20:29;;;;;;;4.05;3.55;;;;;;;;;;5019800;28;20036;-81
2021/08/05 05:22:55;;;;;;;4.95;3.78;;;;;;;;;;5019278;28;20029;-81
2021/08/05 05:25:20;;;;;;;4.28;3.85;;;;;;;;;;4982373;28;20104;-81
2021/08/05 05:27:46;;;;;;;4.30;3.42;;;;;;;;;;4996323;28;20042;-81
2021/08/05 05:30:12;;;;;;;4.03;3.40;;;;;;;;;;5035526;28;20029;-81
2021/08/05 05:32:37;;;;;;;3.63;3.33;;;;;;;;;;5011656;28;20068;-81
2021/08/05 05:35:04;;;;;;;4.30;3.88;;;;;;;;;;4999535;28;20755;-81
2021/08/05 05:37:29;;;;;;;4.93;3.38;;;;;;;;;;5032315;28;20053;-81
2021/08/05 05:39:55;;;;;;;4.63;3.58;;;;;;;;;;4999684;28;20030;-81
2021/08/05 05:42:22;;;;;;;4.03;3.53;;;;;;;;;;5015784;28;20037;-81
2021/08/05 05:44:47;;;;;;;4.68;3.30;;;;;;;;;;4999798;28;20033;-81
2021/08/05 05:47:13;;;;;;;3.92;3.42;;;;;;;;;;4998760;28;20113;-81
2021/08/05 05:49:39;;;;;;;4.03;3.17;;;;;;;;;;4998642;28;20037;-81
2021/08/05 05:52:05;;;;;;;4.43;3.20;;;;;;;;;;4999488;28;20084;-81
2021/08/05 05:54:30;;;;;;;4.45;3.28;;;;;;;;;;5015339;28;20037;-81
2021/08/05 05:56:56;;;;;;;3.88;2.83;;;;;;;;;;5015270;28;20490;-81
2021/08/05 05:59:22;;;;;;;4.18;3.15;;;;;;;;;;5015496;28;20112;-81
2021/08/05 06:01:47;;;;;;;4.30;3.13;;;;;;;;;;5015371;28;20037;-82
2021/08/05 06:04:13;;;;;;;4.40;3.08;;;;;;;;;;4996399;28;20049;-81
2021/08/05 06:06:38;;;;;;;4.38;2.90;;;;;;;;;;4995654;28;20127;-81
2021/08/05 06:09:04;;;;;;;3.58;3.10;;;;;;;;;;4979399;28;20065;-81
2021/08/05 06:11:29;;;;;;;3.58;3.28;;;;;;;;;;5029231;28;20041;-81
2021/08/05 06:13:55;;;;;;;4.53;3.17;;;;;;;;;;5018527;28;20040;-81
2021/08/05 06:16:21;;;;;;;4.32;3.35;;;;;;;;;;5018275;28;20070;-81
2021/08/05 06:18:46;;;;;;;4.45;3.63;;;;;;;;;;5015660;28;20085;-81
2021/08/05 06:21:12;;;;;;;4.28;3.05;;;;;;;;;;5034652;28;20033;-81
2021/08/05 06:23:37;;;;;;;3.90;3.30;;;;;;;;;;5018620;28;20051;-81
2021/08/05 06:26:03;;;;;;;4.18;3.13;;;;;;;;;;5001637;28;20061;-81
2021/08/05 06:28:30;;;;;;;4.35;3.30;;;;;;;;;;5016773;28;20072;-80
2021/08/05 06:30:56;;;;;;;3.95;3.00;;;;;;;;;;5016568;28;20040;-81
2021/08/05 06:33:21;;;;;;;3.70;3.00;;;;;;;;;;4981909;28;20072;-81
2021/08/05 06:35:47;;;;;;;4.05;3.17;;;;;;;;;;4997828;28;20049;-81
2021/08/05 06:38:12;;;;;;;3.30;2.88;;;;;;;;;;4979019;28;20108;-81
2021/08/05 06:40:38;;;;;;;3.47;2.85;;;;;;;;;;4994562;28;20041;-81
2021/08/05 06:43:03;;;;;;;4.85;3.22;;;;;;;;;;4994852;28;20527;-80
2021/08/05 06:45:29;;;;;;;3.38;2.83;;;;;;;;;;4995001;28;20037;-81
2021/08/05 06:47:54;;;;;;;3.42;2.60;;;;;;;;;;5013932;28;20061;-80
2021/08/05 06:50:20;;;;;;;3.97;2.92;;;;;;;;;;4998134;28;20117;-80
2021/08/05 06:52:47;;;;;;;4.88;3.17;;;;;;;;;;4992657;28;20056;-81
2021/08/05 06:55:12;;;;;;;5.88;3.03;;;;;;;;;;4997112;28;20037;-80
2021/08/05 06:57:38;;;;;;;4.13;2.53;;;;;;;;;;5023842;28;20600;-81
2021/08/05 07:00:05;;;;;;;6.07;3.10;;;;;;;;;;4995171;28;20079;-81
2021/08/05 07:02:31;;;;;;;3.30;2.60;;;;;;;;;;5013833;28;20041;-81
2021/08/05 07:05:01;;;;;;;8.48;3.15;;;;;;;;;;5042742;28;20041;-81
2021/08/05 07:07:27;;;;;;;5.07;2.92;;;;;;;;;;5034402;28;20447;-81
2021/08/05 07:09:52;;;;;;;5.15;2.70;;;;;;;;;;5033921;28;20048;-81
2021/08/05 07:12:17;;;;;;;4.93;3.35;;;;;;;;;;5017661;28;20762;-81
2021/08/05 07:14:43;;;;;;;6.75;3.50;;;;;;;;;;5005581;28;20072;-81
2021/08/05 07:17:09;;;;;;;4.25;3.40;;;;;;;;;;5022966;28;20106;-81
2021/08/05 07:19:35;;;;;;;7.35;4.28;;;;;;;;;;5008088;28;20432;-81
2021/08/05 07:22:00;;;;;;;6.47;3.83;;;;;;;;;;5033898;28;20033;-81
2021/08/05 07:24:25;;;;;;;10.32;5.22;;;;;;;;;;5033678;28;20033;-81
2021/08/05 07:26:51;;;;;;;9.35;4.18;;;;;;;;;;5017113;28;20049;-81
2021/08/05 07:29:16;;;;;;;7.45;4.28;;;;;;;;;;5014171;28;20409;-82
2021/08/05 07:31:42;;;;;;;10.23;4.88;;;;;;;;;;5031137;28;20396;-81
2021/08/05 07:34:07;;;;;;;6.95;3.90;;;;;;;;;;5015266;28;20033;-80
2021/08/05 07:36:33;;;;;;;10.43;4.70;;;;;;;;;;5011589;28;20122;-81
2021/08/05 07:38:58;;;;;;;8.52;4.20;;;;;;;;;;5008713;28;20086;-81
2021/08/05 07:41:24;;;;;;;8.73;4.30;;;;;;;;;;5001401;28;20044;-81
2021/08/05 07:43:49;;;;;;;8.30;3.58;;;;;;;;;;5022341;28;20042;-81
2021/08/05 07:46:15;;;;;;;7.80;3.55;;;;;;;;;;5030617;28;20041;-81
2021/08/05 07:48:40;;;;;;;6.28;3.83;;;;;;;;;;5033094;28;20414;-81
2021/08/05 07:51:06;;;;;;;7.60;4.03;;;;;;;;;;5021351;28;20044;-80
2021/08/05 07:53:31;;;;;;;7.40;3.60;;;;;;;;;;5036369;28;20041;-80
2021/08/05 07:55:57;;;;;;;8.32;3.78;;;;;;;;;;5020732;28;20037;-81
2021/08/05 07:58:22;;;;;;;5.97;3.58;;;;;;;;;;5019367;28;20043;-81
2021/08/05 08:00:48;;;;;;;8.63;3.75;;;;;;;;;;5020844;28;20043;-80
2021/08/05 08:03:15;;;;;;;7.15;3.47;;;;;;;;;;5007184;28;20037;-81
2021/08/05 08:05:40;;;;;;;5.05;3.45;;;;;;;;;;5022026;28;20040;-81
2021/08/05 08:08:07;;;;;;;4.97;3.08;;;;;;;;;;5008674;28;20443;-81
2021/08/05 08:10:32;;;;;;;6.22;3.33;;;;;;;;;;5001517;28;20108;-81
2021/08/05 08:12:58;;;;;;;4.85;3.03;;;;;;;;;;5034401;28;20463;-81
2021/08/05 08:15:25;;;;;;;7.68;3.15;;;;;;;;;;5006406;28;20052;-81
2021/08/05 08:17:51;;;;;;;7.30;2.92;;;;;;;;;;5015042;28;20037;-81
2021/08/05 08:20:16;;;;;;;4.75;2.88;;;;;;;;;;4997352;28;20041;-79
2021/08/05 08:22:42;;;;;;;6.60;2.90;;;;;;;;;;5021470;28;20052;-78
2021/08/05 08:25:08;;;;;;;4.47;2.75;;;;;;;;;;5020354;28;20044;-79
2021/08/05 08:27:34;;;;;;;6.55;2.97;;;;;;;;;;5033298;28;20048;-78
2021/08/05 08:29:59;;;;;;;5.05;2.60;;;;;;;;;;5033103;28;20100;-79
2021/08/05 08:32:25;;;;;;;6.68;2.88;;;;;;;;;;5016840;28;20038;-79
2021/08/05 08:34:50;;;;;;;6.05;2.95;;;;;;;;;;5031046;28;20037;-77
2021/08/05 08:37:16;;;;;;;7.38;3.08;;;;;;;;;;5004639;28;20043;-77
2021/08/05 08:39:41;;;;;;;16.10;13.15;;;;;;;;;;5031364;28;20506;-77
2021/08/05 08:42:06;;;;;;;12.10;9.93;;;;;;;;;;5036069;28;20491;-77
2021/08/05 08:44:32;;;;;;;18.83;15.63;;;;;;;;;;5019654;28;20491;-77
2021/08/05 08:46:57;;;;;;;14.48;11.05;;;;;;;;;;5027136;28;20033;-77
2021/08/05 08:49:23;;;;;;;12.80;9.05;;;;;;;;;;5027036;28;20044;-77
2021/08/05 08:51:49;;;;;;;25.77;11.18;;;;;;;;;;5033055;28;20045;-78
2021/08/05 08:54:14;;;;;;;25.00;10.70;;;;;;;;;;5012037;28;20044;-78
2021/08/05 08:56:41;;;;;;;27.13;10.65;;;;;;;;;;5012042;28;20164;-77
2021/08/05 08:59:06;;;;;;;12.88;4.65;;;;;;;;;;4999391;28;20041;-78
2021/08/05 09:01:32;;;;;;;5.85;3.33;;;;;;;;;;5025146;28;20029;-77
2021/08/05 09:03:58;;;;;;;7.32;3.53;;;;;;;;;;5015962;28;20033;-78
2021/08/05 09:06:23;;;;;;;5.82;3.10;;;;;;;;;;5016276;28;20038;-77
2021/08/05 09:08:49;;;;;;;5.38;2.80;;;;;;;;;;5032634;28;20073;-78
2021/08/05 09:11:14;;;;;;;4.35;2.85;;;;;;;;;;5015985;28;20522;-78
2021/08/05 09:13:40;;;;;;;4.82;2.42;;;;;;;;;;5032250;28;20033;-77
2021/08/05 09:16:31;;;;;;;4.20;2.72;;;;;;;;;;5032349;28;20075;-78
2021/08/05 09:19:15;;;;;;;5.72;3.35;;;;;;;;;;5001673;28;20052;-77
2021/08/05 09:21:54;;;;;;;4.90;2.97;;;;;;;;;;5032327;28;20116;-77
2021/08/05 09:24:29;;;;;;;3.55;2.40;;;;;;;;;;5016024;28;20072;-76
2021/08/05 09:26:57;;;;;;;5.68;2.65;;;;;;;;;;5015721;28;20033;-77
2021/08/05 09:29:24;;;;;;;3.72;2.47;;;;;;;;;;5000413;28;20120;-76
2021/08/05 09:31:55;;;;;;;2.83;2.28;;;;;;;;;;5032361;28;20064;-77
2021/08/05 09:34:22;;;;;;;5.47;3.05;;;;;;;;;;5032398;28;20029;-77
2021/08/05 09:36:50;;;;;;;3.47;2.55;;;;;;;;;;5032153;28;20439;-77
2021/08/05 09:39:19;;;;;;;4.85;2.42;;;;;;;;;;5016106;28;20026;-78
2021/08/05 09:41:52;;;;;;;4.30;2.75;;;;;;;;;;4998803;28;20033;-78
2021/08/05 09:44:17;;;;;;;6.25;2.83;;;;;;;;;;5032062;28;20445;-78
2021/08/05 09:46:43;;;;;;;4.72;2.10;;;;;;;;;;5015458;28;20421;-81
2021/08/05 09:49:18;;;;;;;4.90;2.45;;;;;;;;;;5015225;28;20030;-84
2021/08/05 09:51:44;;;;;;;4.93;2.83;;;;;;;;;;4999511;28;20034;-81
2021/08/05 09:54:09;;;;;;;6.90;3.03;;;;;;;;;;5032885;28;20593;-86
2021/08/05 09:56:37;;;;;;;9.77;3.10;;;;;;;;;;4982725;28;20044;-84
2021/08/05 09:59:09;;;;;;;7.32;3.13;;;;;;;;;;5032017;28;20049;-88
2021/08/05 10:01:35;;;;;;;8.35;2.38;;;;;;;;;;5004142;28;20064;-85
2021/08/05 10:04:25;;;;;;;11.82;3.00;;;;;;;;;;5013078;28;20120;-82
2021/08/05 10:06:55;;;;;;;7.40;3.20;;;;;;;;;;4989945;28;20408;-82
2021/08/05 10:09:20;;;;;;;6.88;4.32;;;;;;;;;;5015566;28;20067;-81
2021/08/05 10:11:46;;;;;;;12.88;7.80;;;;;;;;;;5013965;28;20040;-81
2021/08/05 10:14:21;;;;;;;13.35;10.00;;;;;;;;;;5015076;28;20111;-81
2021/08/05 10:16:47;;;;;;;16.00;12.15;;;;;;;;;;5020081;28;20033;-81
2021/08/05 10:19:12;;;;;;;13.35;10.70;;;;;;;;;;5023718;28;20042;-81
2021/08/05 10:21:38;;;;;;;14.25;10.00;;;;;;;;;;5023856;28;20033;-81
2021/08/05 10:24:04;;;;;;;9.30;6.03;;;;;;;;;;4998710;28;20055;-81
2021/08/05 10:26:29;;;;;;;5.00;3.38;;;;;;;;;;5013948;28;20077;-81
2021/08/05 10:28:55;;;;;;;4.88;2.95;;;;;;;;;;5014756;28;20464;-81
2021/08/05 10:31:20;;;;;;;4.20;2.92;;;;;;;;;;5011370;28;20061;-82
2021/08/05 10:33:46;;;;;;;4.88;2.65;;;;;;;;;;4992052;28;20064;-81
2021/08/05 10:36:12;;;;;;;4.45;2.40;;;;;;;;;;4995202;28;20046;-81
2021/08/05 10:38:37;;;;;;;3.40;2.72;;;;;;;;;;4995353;28;20040;-82
2021/08/05 10:41:03;;;;;;;7.97;2.80;;;;;;;;;;5010379;28;20038;-81
2021/08/05 10:43:28;;;;;;;4.45;2.30;;;;;;;;;;4998148;28;20045;-82
2021/08/05 10:45:54;;;;;;;5.32;2.47;;;;;;;;;;4997894;28;20044;-82
2021/08/05 10:48:19;;;;;;;4.47;2.67;;;;;;;;;;5014199;28;20038;-82
2021/08/05 10:50:46;;;;;;;4.43;2.67;;;;;;;;;;4982100;28;20061;-81
2021/08/05 10:53:35;;;;;;;3.65;2.30;;;;;;;;;;5030842;28;20033;-82
2021/08/05 10:56:15;;;;;;;4.28;2.40;;;;;;;;;;5037200;28;20118;-81
2021/08/05 10:59:09;;;;;;;4.88;2.50;;;;;;;;;;5032811;28;20146;-81
2021/08/05 11:01:55;;;;;;;5.10;2.60;;;;;;;;;;5021024;28;20060;-80
2021/08/05 11:04:32;;;;;;;4.03;2.55;;;;;;;;;;5026822;28;20030;-81
2021/08/05 11:07:33;;;;;;;4.18;2.72;;;;;;;;;;5031704;28;20048;-83
2021/08/05 11:10:19;;;;;;;5.03;2.25;;;;;;;;;;5013280;28;20107;-83
2021/08/05 11:12:46;;;;;;;4.75;2.30;;;;;;;;;;5013895;28;20052;-83
2021/08/05 11:15:25;;;;;;;5.45;2.50;;;;;;;;;;5018093;28;20466;-83
2021/08/05 11:18:09;;;;;;;3.25;2.30;;;;;;;;;;5021459;28;20068;-83
2021/08/05 11:20:35;;;;;;;3.80;2.25;;;;;;;;;;5033982;28;20037;-82
2021/08/05 11:23:00;;;;;;;3.50;2.30;;;;;;;;;;5017978;28;20029;-83
2021/08/05 11:25:26;;;;;;;3.72;2.25;;;;;;;;;;5009711;28;20444;-83
2021/08/05 11:28:23;;;;;;;4.63;2.70;;;;;;;;;;5000154;28;20056;-83
2021/08/05 11:30:59;;;;;;;3.30;2.15;;;;;;;;;;5021910;28;20064;-83
2021/08/05 11:33:33;;;;;;;3.65;2.17;;;;;;;;;;5013389;28;20061;-83
2021/08/05 11:36:13;;;;;;;3.25;2.17;;;;;;;;;;5013513;28;20033;-83
2021/08/05 11:39:14;;;;;;;4.68;2.38;;;;;;;;;;5025643;28;20503;-84
2021/08/05 11:41:57;;;;;;;4.35;1.88;;;;;;;;;;5027244;28;20053;-83
2021/08/05 11:44:26;;;;;;;3.55;2.42;;;;;;;;;;5013902;28;20030;-83
2021/08/05 11:47:12;;;;;;;5.75;2.60;;;;;;;;;;5030195;28;20039;-83
2021/08/05 11:49:40;;;;;;;3.20;2.33;;;;;;;;;;5013362;28;20068;-84
2021/08/05 11:52:10;;;;;;;3.47;2.30;;;;;;;;;;4997547;28;20034;-84
2021/08/05 11:54:36;;;;;;;4.50;2.40;;;;;;;;;;5013779;28;20033;-84
2021/08/05 11:57:03;;;;;;;4.30;2.75;;;;;;;;;;5024294;28;20412;-83
2021/08/05 11:59:50;;;;;;;4.25;2.20;;;;;;;;;;4998629;28;20071;-84
2021/08/05 12:02:17;;;;;;;4.15;2.47;;;;;;;;;;5017361;28;20032;-84
2021/08/05 12:04:43;;;;;;;3.38;2.00;;;;;;;;;;5016837;28;20083;-84
2021/08/05 12:07:16;;;;;;;2.88;1.92;;;;;;;;;;5000281;28;20407;-83
2021/08/05 12:09:42;;;;;;;3.70;2.08;;;;;;;;;;4993288;28;20034;-84
2021/08/05 12:12:07;;;;;;;4.15;2.30;;;;;;;;;;5002485;28;20033;-84
2021/08/05 12:14:33;;;;;;;3.50;1.95;;;;;;;;;;5040639;28;20045;-84
2021/08/05 12:16:58;;;;;;;4.72;2.40;;;;;;;;;;4993060;28;20044;-85
2021/08/05 12:19:25;;;;;;;4.97;2.58;;;;;;;;;;5016524;28;20061;-85
2021/08/05 12:22:00;;;;;;;5.95;2.40;;;;;;;;;;5009865;28;20487;-84
2021/08/05 12:24:26;;;;;;;4.70;2.35;;;;;;;;;;4995739;28;20029;-83
2021/08/05 12:26:58;;;;;;;4.60;2.28;;;;;;;;;;4997429;28;20411;-85
2021/08/05 12:29:24;;;;;;;3.92;2.05;;;;;;;;;;5014110;28;20116;-84
2021/08/05 12:31:50;;;;;;;5.50;2.17;;;;;;;;;;5002007;28;20040;-85
2021/08/05 12:34:15;;;;;;;4.00;2.03;;;;;;;;;;5014780;28;20087;-84
2021/08/05 12:36:42;;;;;;;4.00;1.80;;;;;;;;;;5014129;28;20041;-85
2021/08/05 12:39:10;;;;;;;3.50;1.58;;;;;;;;;;4997639;28;20240;-86
2021/08/05 12:41:51;;;;;;;4.35;1.90;;;;;;;;;;4997773;28;20057;-85
2021/08/05 12:44:18;;;;;;;3.30;1.80;;;;;;;;;;4997163;28;20496;-86
2021/08/05 12:46:46;;;;;;;5.15;1.73;;;;;;;;;;5011399;28;20034;-85
2021/08/05 12:49:15;;;;;;;2.92;1.90;;;;;;;;;;5015994;28;20056;-85
2021/08/05 12:51:41;;;;;;;3.53;2.28;;;;;;;;;;5016931;28;20036;-85
2021/08/05 12:54:17;;;;;;;5.13;2.05;;;;;;;;;;5017242;28;20084;-85
2021/08/05 12:56:47;;;;;;;2.95;1.52;;;;;;;;;;5017091;28;20446;-85
2021/08/05 12:59:15;;;;;;;11.68;2.88;;;;;;;;;;5037249;28;20056;-85
2021/08/05 13:01:43;;;;;;;4.05;1.75;;;;;;;;;;5034787;28;20515;-85
2021/08/05 13:04:23;;;;;;;2.70;1.63;;;;;;;;;;5020522;28;20098;-85
2021/08/05 13:07:01;;;;;;;3.90;1.77;;;;;;;;;;5003650;28;20024;-85
2021/08/05 13:09:27;;;;;;;4.10;1.92;;;;;;;;;;5036349;28;20082;-85
2021/08/05 13:11:54;;;;;;;4.93;1.67;;;;;;;;;;4997032;28;20034;-85
2021/08/05 13:14:31;;;;;;;2.55;1.50;;;;;;;;;;5000452;28;20496;-85
2021/08/05 13:17:05;;;;;;;3.63;1.70;;;;;;;;;;5016697;28;20025;-86
2021/08/05 13:19:49;;;;;;;2.35;1.40;;;;;;;;;;5016035;28;20033;-85
2021/08/05 13:22:17;;;;;;;2.95;1.50;;;;;;;;;;5000466;28;20527;-85
2021/08/05 13:25:05;;;;;;;3.00;1.30;;;;;;;;;;5016731;28;20065;-85
2021/08/05 13:27:32;;;;;;;2.05;1.17;;;;;;;;;;5002323;28;20042;-85
2021/08/05 13:30:11;;;;;;;2.45;1.30;;;;;;;;;;5029856;28;20131;-85
2021/08/05 13:32:44;;;;;;;2.58;1.48;;;;;;;;;;5029023;28;20553;-85
2021/08/05 13:35:10;;;;;;;1.80;1.20;;;;;;;;;;5016230;28;20131;-85
2021/08/05 13:37:37;;;;;;;2.80;1.58;;;;;;;;;;4984057;28;20044;-85
2021/08/05 13:40:16;;;;;;;2.72;1.30;;;;;;;;;;4996688;28;20034;-85
2021/08/05 13:42:42;;;;;;;3.13;1.48;;;;;;;;;;5012953;28;20030;-85
2021/08/05 13:45:09;;;;;;;2.03;1.40;;;;;;;;;;4998658;28;20025;-85
2021/08/05 13:47:35;;;;;;;2.45;1.58;;;;;;;;;;5007474;28;20117;-85
2021/08/05 13:50:32;;;;;;;2.80;1.42;;;;;;;;;;4999270;28;20132;-85
2021/08/05 13:53:01;;;;;;;3.10;1.20;;;;;;;;;;5007675;28;20578;-84
2021/08/05 13:55:28;;;;;;;2.95;1.35;;;;;;;;;;5016077;28;20037;-85
2021/08/05 13:57:54;;;;;;;2.53;1.52;;;;;;;;;;4999749;28;20054;-85
2021/08/05 14:00:19;;;;;;;3.90;1.55;;;;;;;;;;5015677;28;20037;-85
2021/08/05 14:02:47;;;;;;;3.05;1.65;;;;;;;;;;4999280;28;20565;-85
2021/08/05 14:05:12;;;;;;;1.85;1.20;;;;;;;;;;5012390;28;20081;-85
2021/08/05 14:07:41;;;;;;;3.08;2.13;;;;;;;;;;4996261;28;20042;-85
2021/08/05 14:10:07;;;;;;;2.60;1.50;;;;;;;;;;5000545;28;20069;-85
2021/08/05 14:12:36;;;;;;;3.20;1.58;;;;;;;;;;5017469;28;20396;-85
2021/08/05 14:15:03;;;;;;;2.17;1.30;;;;;;;;;;5013659;28;20013;-85
2021/08/05 14:17:28;;;;;;;2.78;1.30;;;;;;;;;;5008319;28;20402;-85
2021/08/05 14:19:54;;;;;;;2.40;1.45;;;;;;;;;;5051088;28;20013;-85
2021/08/05 14:22:20;;;;;;;6.60;2.00;;;;;;;;;;5018930;28;20034;-84
2021/08/05 14:24:45;;;;;;;2.00;1.20;;;;;;;;;;5009065;28;20034;-85
2021/08/05 14:27:11;;;;;;;3.20;1.67;;;;;;;;;;4999661;28;20030;-85
2021/08/05 14:29:36;;;;;;;3.60;2.10;;;;;;;;;;5013594;28;20529;-85
2021/08/05 14:32:06;;;;;;;2.30;1.38;;;;;;;;;;4999849;28;20033;-85
2021/08/05 14:34:31;;;;;;;2.42;1.42;;;;;;;;;;5015708;28;20086;-85
2021/08/05 14:36:57;;;;;;;3.17;1.58;;;;;;;;;;5008421;28;20469;-86
2021/08/05 14:39:23;;;;;;;2.33;1.50;;;;;;;;;;5003078;28;20530;-85
2021/08/05 14:41:51;;;;;;;4.28;1.55;;;;;;;;;;4998902;28;20040;-86
2021/08/05 14:44:17;;;;;;;2.28;1.48;;;;;;;;;;5015954;28;20488;-86
2021/08/05 14:46:45;;;;;;;2.65;1.38;;;;;;;;;;5021740;28;20037;-86
2021/08/05 14:49:13;;;;;;;3.88;1.63;;;;;;;;;;5012740;28;20037;-84